Time;durP1;ratioP1;P1;durP2;ratioP2;P2;SDS_P1;SDS_P2;PMS_P1;PMS_P2;Temp;Humidity;BMP_temperature;BMP_pressure;BME280_temperature;BME280_humidity;BME280_pressure;Samples;Min_cycle;Max_cycle;Signal;HPM_P1;HPM_P2
2024/03/19 00:04:41;;;;;;;4.70;3.53;;;;;;;6.03;100.00;101894.88;10267182;28;20120;-76
2024/03/19 00:09:37;;;;;;;5.25;3.78;;;;;;;6.06;100.00;101902.53;10265580;28;20045;-77
2024/03/19 00:14:32;;;;;;;4.10;3.55;;;;;;;5.90;100.00;101895.31;10267128;28;20071;-79
2024/03/19 00:19:28;;;;;;;4.35;3.60;;;;;;;5.94;100.00;101896.47;10265246;28;20497;-78
2024/03/19 00:24:24;;;;;;;6.78;4.35;;;;;;;5.67;100.00;101896.44;10268032;28;20048;-79
2024/03/19 00:29:20;;;;;;;4.68;4.10;;;;;;;5.91;100.00;101902.34;10264092;28;20049;-75
2024/03/19 00:34:17;;;;;;;4.78;4.28;;;;;;;5.66;100.00;101892.06;10267722;28;20075;-76
2024/03/19 00:39:12;;;;;;;5.95;4.38;;;;;;;5.56;100.00;101900.94;10262634;28;20065;-75
2024/03/19 00:44:08;;;;;;;5.22;4.47;;;;;;;5.49;100.00;101900.31;10267509;28;20128;-77
2024/03/19 00:49:04;;;;;;;6.85;4.65;;;;;;;5.58;100.00;101904.19;10268567;28;20044;-77
2024/03/19 00:53:59;;;;;;;5.70;4.50;;;;;;;5.57;100.00;101908.00;10269280;28;20083;-78
2024/03/19 00:58:55;;;;;;;5.03;4.13;;;;;;;5.59;100.00;101891.44;10268432;28;20037;-78
2024/03/19 01:03:50;;;;;;;5.53;4.68;;;;;;;5.50;100.00;101901.97;10267708;28;20045;-77
2024/03/19 01:08:47;;;;;;;6.78;4.80;;;;;;;5.63;100.00;101901.53;10271009;28;20593;-77
2024/03/19 01:13:43;;;;;;;5.20;4.70;;;;;;;5.19;100.00;101907.00;10267773;28;20060;-77
2024/03/19 01:18:40;;;;;;;6.13;5.53;;;;;;;5.25;100.00;101895.16;10284758;28;20061;-75
2024/03/19 01:23:35;;;;;;;6.10;5.15;;;;;;;5.26;100.00;101896.78;10263517;28;20080;-78
2024/03/19 01:28:31;;;;;;;8.18;5.70;;;;;;;5.00;100.00;101897.56;10267147;28;20455;-76
2024/03/19 01:33:26;;;;;;;7.95;5.68;;;;;;;4.83;100.00;101893.00;10267822;28;20076;-77
2024/03/19 01:38:25;;;;;;;11.80;5.75;;;;;;;4.59;100.00;101891.56;10255037;28;20420;-84
2024/03/19 01:43:21;;;;;;;8.73;6.30;;;;;;;4.47;100.00;101893.56;10264526;28;20091;-74
2024/03/19 01:48:17;;;;;;;7.82;6.30;;;;;;;4.39;100.00;101898.34;10263182;28;20044;-76
2024/03/19 01:53:12;;;;;;;8.18;6.15;;;;;;;4.24;100.00;101889.97;10268112;28;20420;-74
2024/03/19 01:58:08;;;;;;;7.75;6.50;;;;;;;4.19;100.00;101900.72;10267662;28;20036;-75
2024/03/19 02:03:03;;;;;;;8.32;6.93;;;;;;;4.15;100.00;101896.84;10261952;28;20544;-76
2024/03/19 02:07:59;;;;;;;7.63;6.72;;;;;;;4.07;100.00;101889.97;10260327;28;20040;-74
2024/03/19 02:12:54;;;;;;;6.80;6.20;;;;;;;4.19;100.00;101892.59;10259586;28;20041;-75
2024/03/19 02:17:51;;;;;;;8.65;7.18;;;;;;;4.02;100.00;101880.94;10263393;28;20128;-74
2024/03/19 02:22:47;;;;;;;7.35;6.07;;;;;;;3.99;100.00;101877.66;10266752;28;20535;-79
2024/03/19 02:27:44;;;;;;;9.48;6.72;;;;;;;3.95;100.00;101876.50;10274749;28;20091;-76
2024/03/19 02:32:39;;;;;;;8.43;6.40;;;;;;;4.07;100.00;101876.44;10268071;28;20042;-77
2024/03/19 02:37:35;;;;;;;7.13;6.38;;;;;;;4.07;100.00;101878.31;10266330;28;20136;-78
2024/03/19 02:42:34;;;;;;;8.60;6.60;;;;;;;4.15;100.00;101880.59;10263679;28;20037;-77
2024/03/19 02:47:29;;;;;;;7.07;6.35;;;;;;;4.32;100.00;101877.91;10275222;28;20072;-78
2024/03/19 02:52:25;;;;;;;9.30;6.13;;;;;;;4.37;100.00;101873.38;10269937;28;20041;-77
2024/03/19 02:57:20;;;;;;;12.73;6.10;;;;;;;4.28;100.00;101866.75;10278591;28;20049;-76
2024/03/19 03:02:16;;;;;;;9.98;6.28;;;;;;;4.26;100.00;101865.34;10272971;28;20044;-78
2024/03/19 03:07:11;;;;;;;7.70;6.65;;;;;;;3.96;100.00;101859.19;10267911;28;20037;-74
2024/03/19 03:12:07;;;;;;;8.65;6.50;;;;;;;3.80;100.00;101868.13;10272619;28;20127;-76
2024/03/19 03:17:03;;;;;;;8.18;6.40;;;;;;;3.63;100.00;101873.50;10284264;28;20091;-76
2024/03/19 03:21:59;;;;;;;7.80;6.90;;;;;;;3.50;100.00;101880.03;10274079;28;20047;-75
2024/03/19 03:26:54;;;;;;;8.35;5.97;;;;;;;3.62;100.00;101889.97;10276577;28;20044;-77
2024/03/19 03:31:50;;;;;;;7.57;6.07;;;;;;;3.75;100.00;101886.97;10270265;28;20128;-77
2024/03/19 03:36:45;;;;;;;7.07;5.65;;;;;;;3.82;100.00;101884.13;10274231;28;20443;-77
2024/03/19 03:41:42;;;;;;;6.15;5.55;;;;;;;3.76;100.00;101877.78;10263470;28;20120;-74
2024/03/19 03:46:37;;;;;;;6.60;5.88;;;;;;;3.79;100.00;101877.31;10274674;28;20084;-77
2024/03/19 03:51:33;;;;;;;9.27;6.40;;;;;;;3.81;100.00;101869.78;10280130;28;20122;-75
2024/03/19 03:56:28;;;;;;;9.90;6.60;;;;;;;3.79;100.00;101871.91;10274228;28;20263;-76
2024/03/19 04:01:24;;;;;;;7.63;6.38;;;;;;;3.69;100.00;101872.56;10273012;28;20488;-76
2024/03/19 04:06:20;;;;;;;7.75;6.47;;;;;;;3.48;100.00;101870.50;10273524;28;20041;-77
2024/03/19 04:11:16;;;;;;;8.20;7.10;;;;;;;3.44;100.00;101867.50;10273053;28;20064;-74
2024/03/19 04:16:11;;;;;;;11.10;6.90;;;;;;;3.32;100.00;101872.13;10279398;28;20037;-76
2024/03/19 04:21:07;;;;;;;8.70;6.97;;;;;;;3.05;100.00;101859.16;10272671;28;20123;-74
2024/03/19 04:26:03;;;;;;;7.20;6.47;;;;;;;2.91;100.00;101877.50;10280723;28;20561;-75
2024/03/19 04:30:58;;;;;;;7.95;7.15;;;;;;;2.83;100.00;101879.75;10275530;28;20451;-74
2024/03/19 04:35:54;;;;;;;8.55;6.93;;;;;;;2.91;100.00;101887.50;10272894;28;20059;-76
2024/03/19 04:40:49;;;;;;;9.18;7.45;;;;;;;2.86;100.00;101895.50;10273512;28;20172;-76
2024/03/19 04:45:45;;;;;;;11.10;7.18;;;;;;;2.77;100.00;101886.13;10274912;28;20048;-76
2024/03/19 04:50:40;;;;;;;9.45;6.90;;;;;;;2.68;100.00;101881.06;10273314;28;20045;-76
2024/03/19 04:55:36;;;;;;;7.90;7.20;;;;;;;2.50;100.00;101875.78;10276855;28;20066;-76
2024/03/19 05:00:32;;;;;;;10.02;7.15;;;;;;;2.56;100.00;101880.28;10279851;28;20036;-75
2024/03/19 05:05:27;;;;;;;9.32;7.97;;;;;;;2.59;100.00;101890.59;10271484;28;20055;-81
2024/03/19 05:10:23;;;;;;;9.50;7.70;;;;;;;2.66;100.00;101880.47;10272846;28;20095;-73
2024/03/19 05:15:18;;;;;;;10.63;7.20;;;;;;;2.72;100.00;101884.94;10257430;28;20404;-78
2024/03/19 05:20:14;;;;;;;10.55;7.47;;;;;;;2.90;100.00;101880.44;10272036;28;20037;-74
2024/03/19 05:25:10;;;;;;;9.27;7.03;;;;;;;3.10;100.00;101880.88;10271398;28;20053;-74
2024/03/19 05:30:06;;;;;;;11.23;7.90;;;;;;;3.30;100.00;101885.06;10274239;28;20052;-74
2024/03/19 05:35:02;;;;;;;8.13;7.32;;;;;;;3.28;100.00;101879.06;10270927;28;20080;-74
2024/03/19 05:39:57;;;;;;;9.65;7.38;;;;;;;3.29;100.00;101878.00;10270607;28;20049;-74
2024/03/19 05:44:56;;;;;;;8.75;7.15;;;;;;;3.12;100.00;101889.56;10265272;28;20107;-73
2024/03/19 05:49:51;;;;;;;7.97;7.18;;;;;;;3.10;100.00;101886.28;10268932;28;20033;-74
2024/03/19 05:54:47;;;;;;;8.63;7.57;;;;;;;3.06;100.00;101898.63;10262233;28;20043;-75
2024/03/19 05:59:43;;;;;;;7.53;6.82;;;;;;;3.25;100.00;101898.47;10254719;28;20047;-74
2024/03/19 06:04:39;;;;;;;8.88;7.28;;;;;;;3.29;100.00;101900.44;10264949;28;20094;-74
2024/03/19 06:09:34;;;;;;;7.97;7.28;;;;;;;3.42;100.00;101899.34;10264208;28;20041;-74
2024/03/19 06:14:30;;;;;;;7.97;7.28;;;;;;;3.36;100.00;101894.91;10261551;28;20049;-75
2024/03/19 06:19:25;;;;;;;9.05;7.07;;;;;;;3.37;100.00;101907.38;10259610;28;20053;-75
2024/03/19 06:24:21;;;;;;;7.38;6.70;;;;;;;3.48;100.00;101902.97;10252859;28;20128;-75
2024/03/19 06:29:17;;;;;;;10.57;6.30;;;;;;;3.42;100.00;101904.75;10263644;28;20073;-75
2024/03/19 06:34:12;;;;;;;8.07;7.30;;;;;;;3.38;100.00;101898.19;10260547;28;20041;-74
2024/03/19 06:39:08;;;;;;;9.77;7.47;;;;;;;3.49;100.00;101905.44;10261870;28;20045;-76
2024/03/19 06:44:04;;;;;;;9.23;5.80;;;;;;;3.42;100.00;101904.75;10261499;28;20044;-74
2024/03/19 06:48:59;;;;;;;8.77;5.90;;;;;;;3.58;100.00;101919.41;10249340;28;20136;-74
2024/03/19 06:53:55;;;;;;;6.68;5.32;;;;;;;3.62;100.00;101919.72;10254722;28;20037;-74
2024/03/19 06:58:50;;;;;;;7.85;5.75;;;;;;;3.55;100.00;101936.09;10264608;28;20049;-73
2024/03/19 07:03:46;;;;;;;7.50;5.75;;;;;;;3.62;100.00;101941.34;10251116;28;20056;-74
2024/03/19 07:08:43;;;;;;;6.45;5.60;;;;;;;3.69;100.00;101931.22;10266340;28;20033;-73
2024/03/19 07:13:38;;;;;;;7.50;5.60;;;;;;;3.92;100.00;101936.53;10273505;28;20087;-75
2024/03/19 07:18:34;;;;;;;8.98;5.85;;;;;;;3.93;100.00;101946.28;10264286;28;20093;-74
2024/03/19 07:23:29;;;;;;;5.90;5.30;;;;;;;4.03;100.00;101942.13;10272170;28;20041;-74
2024/03/19 07:28:25;;;;;;;8.02;5.30;;;;;;;4.11;100.00;101953.38;10271674;28;20098;-76
2024/03/19 07:33:21;;;;;;;6.90;5.57;;;;;;;4.19;100.00;101944.03;10270780;28;20095;-74
2024/03/19 07:38:16;;;;;;;9.98;6.00;;;;;;;4.31;100.00;101950.19;10261542;28;20593;-74
2024/03/19 07:43:14;;;;;;;10.70;6.53;;;;;;;4.33;100.00;101964.28;10261824;28;20044;-73
2024/03/19 07:48:12;;;;;;;8.65;5.45;;;;;;;4.47;100.00;101953.16;10271935;28;20072;-74
2024/03/19 07:53:09;;;;;;;9.18;5.97;;;;;;;4.66;100.00;101957.22;10266099;28;20064;-75
2024/03/19 07:58:05;;;;;;;7.82;7.05;;;;;;;4.87;100.00;101965.66;10270424;28;20080;-74
2024/03/19 08:03:01;;;;;;;7.88;7.10;;;;;;;5.23;100.00;101962.38;10271557;28;20122;-74
2024/03/19 08:07:58;;;;;;;8.05;7.25;;;;;;;5.16;100.00;101961.75;10273325;28;20517;-74
2024/03/19 08:12:53;;;;;;;12.63;8.30;;;;;;;4.90;100.00;101973.28;10270335;28;20067;-75
2024/03/19 08:17:49;;;;;;;8.38;7.55;;;;;;;4.99;100.00;101955.53;10272986;28;20052;-74
2024/03/19 08:22:44;;;;;;;10.00;7.22;;;;;;;5.17;100.00;101963.38;10272311;28;21383;-74
2024/03/19 08:27:40;;;;;;;8.75;7.85;;;;;;;5.41;100.00;101957.72;10270071;28;20069;-75
2024/03/19 08:32:37;;;;;;;8.75;7.85;;;;;;;5.47;100.00;101968.38;10272991;28;20424;-74
2024/03/19 08:37:33;;;;;;;7.18;6.53;;;;;;;5.66;100.00;101959.91;10276027;28;20457;-75
2024/03/19 08:42:28;;;;;;;8.02;7.25;;;;;;;5.61;100.00;101951.72;10268628;28;20056;-75
2024/03/19 08:47:24;;;;;;;8.40;7.50;;;;;;;5.65;100.00;101958.28;10277212;28;20068;-73
2024/03/19 08:52:19;;;;;;;10.02;7.97;;;;;;;5.52;100.00;101967.63;10271370;28;20064;-74
2024/03/19 08:57:16;;;;;;;8.20;7.40;;;;;;;5.57;100.00;101966.84;10268512;28;20064;-74
2024/03/19 09:02:11;;;;;;;12.77;7.95;;;;;;;5.82;100.00;101969.03;10266372;28;20147;-74
2024/03/19 09:07:07;;;;;;;10.65;8.10;;;;;;;5.92;100.00;101971.88;10268456;28;20974;-75
2024/03/19 09:12:03;;;;;;;8.88;8.00;;;;;;;6.38;100.00;101975.03;10270312;28;20041;-74
2024/03/19 09:16:59;;;;;;;8.52;7.72;;;;;;;6.60;100.00;101957.84;10268286;28;20348;-75
2024/03/19 09:21:55;;;;;;;10.13;8.50;;;;;;;6.66;100.00;101967.63;10272177;28;20037;-75
2024/03/19 09:26:50;;;;;;;9.02;8.13;;;;;;;6.69;100.00;101970.66;10271207;28;20106;-74
2024/03/19 09:31:47;;;;;;;9.65;7.90;;;;;;;7.16;100.00;101966.34;10270341;28;20497;-74
2024/03/19 09:36:42;;;;;;;9.05;7.53;;;;;;;7.26;100.00;101966.38;10270058;28;20440;-74
2024/03/19 09:42:07;;;;;;;8.98;8.02;;;;;;;7.18;100.00;101952.47;10259310;28;20059;-74
2024/03/19 09:47:06;;;;;;;8.65;7.68;;;;;;;7.41;100.00;101956.66;10288536;28;20586;-75
2024/03/19 09:52:03;;;;;;;9.00;8.10;;;;;;;7.53;100.00;101943.63;10269683;28;20044;-74
2024/03/19 09:57:00;;;;;;;10.60;9.00;;;;;;;7.98;100.00;101950.28;10267451;28;20045;-75
2024/03/19 10:01:57;;;;;;;10.15;8.70;;;;;;;8.12;100.00;101951.41;10269404;28;20044;-76
2024/03/19 10:06:52;;;;;;;10.45;7.70;;;;;;;8.21;100.00;101946.22;10269627;28;20412;-74
2024/03/19 10:11:48;;;;;;;10.10;8.60;;;;;;;8.09;100.00;101946.47;10271194;28;20048;-74
2024/03/19 10:16:50;;;;;;;10.10;7.85;;;;;;;8.20;100.00;101942.66;10271870;28;20564;-76
2024/03/19 10:21:46;;;;;;;8.45;7.63;;;;;;;8.78;100.00;101919.75;10267912;28;20084;-74
2024/03/19 10:26:43;;;;;;;12.10;9.02;;;;;;;8.88;100.00;101925.19;10269943;28;20043;-75
2024/03/19 10:31:40;;;;;;;10.30;8.70;;;;;;;8.83;100.00;101922.47;10268282;28;20045;-74
2024/03/19 10:36:37;;;;;;;11.55;8.30;;;;;;;9.01;100.00;101919.16;10267713;28;20152;-75
2024/03/19 10:41:33;;;;;;;9.80;8.82;;;;;;;8.89;100.00;101921.38;10272563;28;20040;-74
2024/03/19 10:46:29;;;;;;;11.65;8.02;;;;;;;9.14;100.00;101906.81;10267752;28;20045;-76
2024/03/19 10:51:26;;;;;;;11.55;8.55;;;;;;;9.33;100.00;101909.75;10286586;28;20476;-74
2024/03/19 10:56:25;;;;;;;9.07;8.18;;;;;;;9.75;100.00;101904.84;10275957;28;20033;-74
2024/03/19 11:01:21;;;;;;;11.10;8.98;;;;;;;10.05;100.00;101903.84;10278006;28;20057;-74
2024/03/19 11:06:21;;;;;;;14.43;8.75;;;;;;;10.30;100.00;101909.16;10275390;28;20041;-76
2024/03/19 11:11:17;;;;;;;12.13;8.75;;;;;;;10.18;100.00;101897.72;10277005;28;20040;-75
2024/03/19 11:16:13;;;;;;;12.70;9.98;;;;;;;9.75;100.00;101911.16;10276027;28;20090;-74
2024/03/19 11:21:18;;;;;;;10.75;8.88;;;;;;;9.76;100.00;101899.13;10268424;28;20517;-74
2024/03/19 11:26:15;;;;;;;12.00;9.20;;;;;;;9.84;100.00;101886.78;10275521;28;20044;-73
2024/03/19 11:31:12;;;;;;;15.18;10.02;;;;;;;10.20;100.00;101889.25;10274151;28;20251;-75
2024/03/19 11:36:08;;;;;;;14.50;10.48;;;;;;;10.02;100.00;101888.00;10273130;28;20048;-74
2024/03/19 11:41:04;;;;;;;12.98;10.13;;;;;;;10.13;100.00;101889.56;10267308;28;20127;-76
2024/03/19 11:46:00;;;;;;;14.43;9.10;;;;;;;10.15;100.00;101881.91;10270114;28;20033;-74
2024/03/19 11:50:59;;;;;;;12.35;10.82;;;;;;;10.57;100.00;101883.16;10261117;28;20116;-75
2024/03/19 11:55:56;;;;;;;11.77;10.00;;;;;;;11.39;100.00;101876.72;10266685;28;20060;-74
2024/03/19 12:00:51;;;;;;;16.42;10.40;;;;;;;12.03;100.00;101868.13;10277118;28;20068;-74
2024/03/19 12:05:50;;;;;;;11.75;10.55;;;;;;;12.48;100.00;101862.94;10273005;28;20037;-74
2024/03/19 12:10:47;;;;;;;15.02;11.57;;;;;;;12.00;100.00;101864.88;10274682;28;20036;-75
2024/03/19 12:15:42;;;;;;;12.07;9.70;;;;;;;11.88;100.00;101861.78;10269937;28;20073;-74
2024/03/19 12:20:38;;;;;;;13.80;10.55;;;;;;;12.05;100.00;101858.50;10273115;28;20099;-76
2024/03/19 12:25:34;;;;;;;16.55;11.73;;;;;;;12.45;100.00;101858.06;10271740;28;20048;-75
2024/03/19 12:30:30;;;;;;;15.93;11.40;;;;;;;12.68;100.00;101854.34;10272380;28;20041;-75
2024/03/19 12:35:27;;;;;;;13.32;11.05;;;;;;;14.05;100.00;101849.66;10271108;28;20512;-76
2024/03/19 12:40:24;;;;;;;14.25;10.55;;;;;;;15.44;100.00;101843.84;10274812;28;20527;-75
2024/03/19 12:45:20;;;;;;;14.07;11.32;;;;;;;16.22;100.00;101848.47;10266737;28;21144;-75
2024/03/19 12:50:18;;;;;;;17.77;11.73;;;;;;;15.21;100.00;101854.19;10273681;28;20053;-74
2024/03/19 12:55:15;;;;;;;20.55;12.02;;;;;;;14.80;100.00;101849.88;10270142;28;20509;-74
2024/03/19 13:00:12;;;;;;;13.95;10.45;;;;;;;13.71;100.00;101844.72;10271660;28;20077;-74
2024/03/19 13:05:08;;;;;;;15.85;10.80;;;;;;;13.49;100.00;101847.47;10270812;28;20049;-74
2024/03/19 13:10:05;;;;;;;11.68;10.15;;;;;;;13.98;100.00;101841.03;10271838;28;20041;-74
2024/03/19 13:15:00;;;;;;;17.17;10.63;;;;;;;13.91;100.00;101837.91;10269139;28;20049;-74
2024/03/19 13:19:56;;;;;;;19.00;11.07;;;;;;;13.53;100.00;101841.03;10264617;28;20047;-75
2024/03/19 13:24:52;;;;;;;15.68;11.13;;;;;;;13.40;100.00;101833.63;10270649;28;20041;-74
2024/03/19 13:29:48;;;;;;;17.73;11.15;;;;;;;12.99;100.00;101834.50;10268244;28;20043;-74
2024/03/19 13:34:46;;;;;;;13.63;10.93;;;;;;;12.52;100.00;101836.53;10270601;28;20060;-74
2024/03/19 13:39:42;;;;;;;15.98;10.77;;;;;;;12.13;100.00;101824.91;10272109;28;20089;-74
2024/03/19 13:44:37;;;;;;;16.48;11.45;;;;;;;11.95;100.00;101829.34;10272017;28;20409;-76
2024/03/19 13:49:34;;;;;;;17.70;12.65;;;;;;;11.76;100.00;101825.78;10269119;28;20037;-76
2024/03/19 13:54:29;;;;;;;17.02;12.68;;;;;;;11.81;100.00;101831.16;10268768;28;20048;-75
2024/03/19 13:59:25;;;;;;;20.08;11.98;;;;;;;11.75;100.00;101827.69;10262046;28;20049;-74
2024/03/19 14:04:21;;;;;;;16.05;11.90;;;;;;;11.62;100.00;101830.38;10269312;28;20774;-74
2024/03/19 14:09:16;;;;;;;18.25;11.23;;;;;;;11.35;100.00;101837.38;10263559;28;20051;-74
2024/03/19 14:14:12;;;;;;;18.15;11.38;;;;;;;11.28;100.00;101843.19;10268375;28;20045;-74
2024/03/19 14:19:12;;;;;;;14.45;11.23;;;;;;;11.18;100.00;101842.50;10267531;28;20036;-73
2024/03/19 14:24:08;;;;;;;14.23;11.30;;;;;;;11.06;100.00;101841.00;10267365;28;20068;-75
2024/03/19 14:29:03;;;;;;;15.75;11.65;;;;;;;11.28;100.00;101842.38;10268604;28;20041;-74
2024/03/19 14:33:59;;;;;;;17.13;12.32;;;;;;;11.49;100.00;101838.25;10264731;28;20076;-75
2024/03/19 14:38:54;;;;;;;15.85;10.60;;;;;;;11.39;100.00;101830.16;10274680;28;20037;-75
2024/03/19 14:43:50;;;;;;;17.40;11.07;;;;;;;11.33;100.00;101840.38;10271510;28;20049;-75
2024/03/19 14:48:48;;;;;;;18.20;11.93;;;;;;;11.51;100.00;101833.28;10272892;28;20817;-74
2024/03/19 14:53:44;;;;;;;17.02;11.77;;;;;;;11.53;100.00;101827.50;10266892;28;20048;-76
2024/03/19 14:58:41;;;;;;;14.55;10.75;;;;;;;11.59;100.00;101815.34;10263421;28;20447;-75
2024/03/19 15:03:36;;;;;;;13.32;10.35;;;;;;;11.47;100.00;101817.75;10268360;28;20049;-73
2024/03/19 15:08:32;;;;;;;16.05;10.98;;;;;;;11.54;100.00;101819.00;10267017;28;20049;-74
2024/03/19 15:13:27;;;;;;;13.10;11.07;;;;;;;11.40;100.00;101822.78;10268261;28;20041;-75
2024/03/19 15:18:23;;;;;;;13.90;10.30;;;;;;;11.40;100.00;101828.25;10260784;28;20051;-75
2024/03/19 15:23:19;;;;;;;12.50;11.00;;;;;;;11.42;100.00;101826.84;10265253;28;20088;-75
2024/03/19 15:28:15;;;;;;;14.18;11.38;;;;;;;11.34;100.00;101822.03;10257187;28;20095;-73
2024/03/19 15:33:11;;;;;;;14.38;10.57;;;;;;;11.24;100.00;101813.97;10268507;28;20048;-73
2024/03/19 15:38:07;;;;;;;14.15;12.27;;;;;;;11.18;100.00;101823.34;10269750;28;20417;-74
2024/03/19 15:43:03;;;;;;;12.48;10.48;;;;;;;11.24;100.00;101820.25;10277567;28;20433;-73
2024/03/19 15:47:59;;;;;;;14.43;11.00;;;;;;;11.27;100.00;101824.31;10274202;28;20041;-75
2024/03/19 15:52:54;;;;;;;12.82;10.93;;;;;;;11.20;100.00;101824.69;10273158;28;20049;-73
2024/03/19 15:57:50;;;;;;;14.02;10.98;;;;;;;11.19;100.00;101822.25;10282975;28;20052;-73
2024/03/19 16:02:47;;;;;;;16.08;11.73;;;;;;;11.19;100.00;101816.78;10271420;28;20056;-74
2024/03/19 16:07:45;;;;;;;16.60;10.95;;;;;;;11.24;100.00;101805.75;10263517;28;20079;-75
2024/03/19 16:12:41;;;;;;;12.88;11.20;;;;;;;11.21;100.00;101809.06;10264515;28;20073;-74
2024/03/19 16:17:36;;;;;;;14.60;12.07;;;;;;;11.11;100.00;101813.56;10258349;28;20040;-76
2024/03/19 16:22:32;;;;;;;14.15;11.23;;;;;;;11.21;100.00;101814.53;10262580;28;20581;-75
2024/03/19 16:27:28;;;;;;;15.00;11.63;;;;;;;11.48;100.00;101825.66;10259460;28;20084;-73
2024/03/19 16:32:24;;;;;;;14.85;11.98;;;;;;;11.61;100.00;101835.06;10263001;28;20507;-73
2024/03/19 16:37:19;;;;;;;15.50;11.85;;;;;;;11.63;100.00;101824.63;10266091;28;20582;-73
2024/03/19 16:42:16;;;;;;;14.80;12.15;;;;;;;11.67;100.00;101820.16;10255294;28;20045;-72
2024/03/19 16:47:12;;;;;;;15.55;10.93;;;;;;;11.61;100.00;101828.75;10263003;28;20083;-73
2024/03/19 16:52:07;;;;;;;16.30;11.20;;;;;;;11.39;100.00;101827.41;10264196;28;20531;-73
2024/03/19 16:57:03;;;;;;;15.70;11.40;;;;;;;11.26;100.00;101833.66;10266328;28;20565;-73
2024/03/19 17:01:59;;;;;;;14.50;10.95;;;;;;;11.09;100.00;101840.44;10266696;28;20412;-73
2024/03/19 17:06:55;;;;;;;13.98;11.70;;;;;;;10.93;100.00;101830.78;10269372;28;20410;-73
2024/03/19 17:11:50;;;;;;;13.82;11.63;;;;;;;10.77;100.00;101848.47;10248927;28;20033;-73
2024/03/19 17:16:46;;;;;;;19.52;11.68;;;;;;;10.61;100.00;101851.41;10257054;28;20033;-72
2024/03/19 17:21:43;;;;;;;17.92;11.82;;;;;;;10.43;100.00;101865.81;10246890;28;20041;-72
2024/03/19 17:26:38;;;;;;;14.90;11.90;;;;;;;10.26;100.00;101874.44;10259017;28;20523;-72
2024/03/19 17:31:34;;;;;;;20.30;13.00;;;;;;;10.01;100.00;101875.47;10260775;28;20040;-73
2024/03/19 17:36:30;;;;;;;15.18;12.38;;;;;;;9.98;100.00;101871.38;10267032;28;20424;-72
2024/03/19 17:41:25;;;;;;;15.82;12.50;;;;;;;9.86;100.00;101882.69;10265354;28;20048;-73
2024/03/19 17:46:21;;;;;;;18.33;12.82;;;;;;;9.94;100.00;101877.72;10267390;28;20057;-73
2024/03/19 17:51:16;;;;;;;15.00;12.32;;;;;;;10.01;100.00;101889.13;10271438;28;20123;-75
2024/03/19 17:56:12;;;;;;;16.52;12.88;;;;;;;10.07;100.00;101885.22;10257071;28;20028;-73
2024/03/19 18:01:07;;;;;;;18.17;13.57;;;;;;;10.06;100.00;101889.06;10255547;28;20048;-73
2024/03/19 18:06:06;;;;;;;16.83;12.80;;;;;;;10.06;100.00;101900.00;10257283;28;20037;-73
2024/03/19 18:11:02;;;;;;;16.40;13.43;;;;;;;10.08;100.00;101908.75;10253604;28;20079;-73
2024/03/19 18:15:58;;;;;;;20.35;13.18;;;;;;;10.03;100.00;101906.06;10258062;28;20045;-74
2024/03/19 18:20:53;;;;;;;21.02;14.68;;;;;;;10.05;100.00;101898.38;10252768;28;20052;-74
2024/03/19 18:25:49;;;;;;;19.15;13.10;;;;;;;9.96;100.00;101902.81;10250252;28;20563;-74
2024/03/19 18:30:45;;;;;;;23.35;13.32;;;;;;;10.00;100.00;101906.59;10255714;28;20033;-73
2024/03/19 18:35:40;;;;;;;16.40;13.02;;;;;;;9.90;100.00;101913.78;10254454;28;20131;-74
2024/03/19 18:40:36;;;;;;;17.45;12.13;;;;;;;10.00;100.00;101909.34;10257387;28;20052;-74
2024/03/19 18:45:32;;;;;;;17.60;12.45;;;;;;;10.01;100.00;101903.59;10254088;28;20041;-74
2024/03/19 18:50:27;;;;;;;14.82;12.20;;;;;;;9.96;100.00;101902.81;10256067;28;20049;-73
2024/03/19 18:55:23;;;;;;;19.73;13.48;;;;;;;9.96;100.00;101900.09;10257264;28;20090;-73
2024/03/19 19:00:28;;;;;;;19.27;11.98;;;;;;;9.99;100.00;101910.44;10242212;28;20084;-74
2024/03/19 19:05:26;;;;;;;15.50;12.38;;;;;;;10.01;100.00;101913.72;10277094;28;20244;-73
2024/03/19 19:10:21;;;;;;;19.85;12.82;;;;;;;9.99;100.00;101926.84;10277903;28;20071;-73
2024/03/19 19:15:18;;;;;;;16.38;12.65;;;;;;;9.97;100.00;101918.09;10286810;28;20144;-73
2024/03/19 19:20:13;;;;;;;16.13;11.25;;;;;;;9.98;100.00;101925.19;10273726;28;20081;-72
2024/03/19 19:25:09;;;;;;;16.85;12.38;;;;;;;9.98;100.00;101927.94;10268088;28;20049;-73
2024/03/19 19:30:09;;;;;;;17.67;11.65;;;;;;;9.97;100.00;101929.03;10272057;28;20072;-73
2024/03/19 19:35:05;;;;;;;18.85;11.65;;;;;;;9.92;100.00;101920.88;10266881;28;20063;-77
2024/03/19 19:40:01;;;;;;;16.95;12.52;;;;;;;9.93;100.00;101922.50;10271673;28;20085;-73
2024/03/19 19:44:57;;;;;;;21.50;11.77;;;;;;;9.92;100.00;101926.34;10263860;28;20045;-73
2024/03/19 19:49:53;;;;;;;16.63;12.05;;;;;;;9.92;100.00;101921.69;10268737;28;20132;-74
2024/03/19 19:54:48;;;;;;;19.52;11.13;;;;;;;9.91;100.00;101931.00;10267268;28;20052;-73
2024/03/19 19:59:44;;;;;;;19.10;11.68;;;;;;;9.85;100.00;101922.00;10270653;28;20041;-73
2024/03/19 20:04:40;;;;;;;14.57;10.43;;;;;;;9.88;100.00;101926.91;10265066;28;20336;-73
2024/03/19 20:09:35;;;;;;;15.73;11.32;;;;;;;9.82;100.00;101922.59;10262992;28;20120;-73
2024/03/19 20:14:31;;;;;;;17.35;12.40;;;;;;;9.84;100.00;101923.13;10272453;28;20053;-73
2024/03/19 20:19:27;;;;;;;15.35;11.00;;;;;;;9.83;100.00;101916.00;10270468;28;20049;-73
2024/03/19 20:24:28;;;;;;;15.60;11.40;;;;;;;9.84;100.00;101914.94;10267885;28;20045;-73
2024/03/19 20:29:24;;;;;;;13.83;10.23;;;;;;;9.81;100.00;101910.00;10272722;28;20029;-74
2024/03/19 20:34:19;;;;;;;17.40;11.77;;;;;;;9.80;100.00;101908.38;10269282;28;20064;-72
2024/03/19 20:39:15;;;;;;;19.88;12.52;;;;;;;9.80;100.00;101897.47;10268910;28;20048;-73
2024/03/19 20:44:11;;;;;;;14.65;11.73;;;;;;;9.78;100.00;101896.94;10270679;28;20045;-74
2024/03/19 20:49:06;;;;;;;18.65;11.32;;;;;;;9.79;100.00;101901.28;10266490;28;20056;-73
2024/03/19 20:54:05;;;;;;;16.52;10.82;;;;;;;9.77;100.00;101892.56;10264377;28;20048;-74
2024/03/19 20:59:00;;;;;;;14.75;10.82;;;;;;;9.75;100.00;101883.84;10266268;28;20076;-75
2024/03/19 21:03:56;;;;;;;16.20;10.38;;;;;;;9.66;100.00;101869.16;10258251;28;20052;-74
2024/03/19 21:08:53;;;;;;;17.27;11.63;;;;;;;9.57;100.00;101895.44;10251326;28;20045;-71
2024/03/19 21:13:48;;;;;;;15.05;11.85;;;;;;;9.56;100.00;101882.88;10263494;28;20080;-74
2024/03/19 21:18:44;;;;;;;17.58;11.05;;;;;;;9.50;100.00;101884.00;10258865;28;20084;-75
2024/03/19 21:23:40;;;;;;;17.55;12.07;;;;;;;9.49;100.00;101885.91;10266482;28;20898;-74
2024/03/19 21:28:36;;;;;;;19.60;11.48;;;;;;;9.48;100.00;101887.81;10265899;28;20045;-73
2024/03/19 21:33:32;;;;;;;13.75;10.70;;;;;;;9.50;100.00;101884.00;10262007;28;20555;-75
2024/03/19 21:38:28;;;;;;;17.45;11.18;;;;;;;9.48;100.00;101885.09;10270749;28;20047;-76
2024/03/19 21:43:23;;;;;;;13.52;10.45;;;;;;;9.45;100.00;101882.13;10264639;28;20052;-76
2024/03/19 21:48:19;;;;;;;14.07;10.55;;;;;;;9.46;100.00;101881.81;10263396;28;20219;-77
2024/03/19 21:53:15;;;;;;;15.00;11.13;;;;;;;9.46;100.00;101876.38;10267144;28;20052;-76
2024/03/19 21:58:10;;;;;;;16.00;11.90;;;;;;;9.44;100.00;101873.09;10265740;28;20041;-75
2024/03/19 22:03:09;;;;;;;16.52;11.30;;;;;;;9.42;100.00;101875.31;10257528;28;20060;-75
2024/03/19 22:08:06;;;;;;;17.25;11.60;;;;;;;9.43;100.00;101870.66;10263849;28;20037;-74
2024/03/19 22:13:03;;;;;;;15.23;10.70;;;;;;;9.40;100.00;101861.13;10265838;28;20079;-75
2024/03/19 22:17:58;;;;;;;14.50;10.52;;;;;;;9.43;100.00;101871.47;10263391;28;20900;-74
2024/03/19 22:22:54;;;;;;;18.25;11.27;;;;;;;9.42;100.00;101855.38;10265718;28;20041;-74